Time;durP1;ratioP1;P1;durP2;ratioP2;P2;SDS_P1;SDS_P2;PMS_P1;PMS_P2;Temp;Humidity;BMP_temperature;BMP_pressure;BME280_temperature;BME280_humidity;BME280_pressure;Samples;Min_cycle;Max_cycle;Signal;HPM_P1;HPM_P2
2023/10/31 00:01:18;;;;;;;;;18.00;18.00;;;;;16.32;31.58;98778.03;5065843;28;8857;-72
2023/10/31 00:03:47;;;;;;;;;18.20;17.20;;;;;16.27;31.94;98771.28;5050336;28;8880;-68
2023/10/31 00:06:17;;;;;;;;;17.60;17.60;;;;;16.21;31.88;98780.44;5065749;28;8871;-71
2023/10/31 00:08:46;;;;;;;;;22.00;19.40;;;;;16.25;31.90;98779.31;5049933;28;8878;-69
2023/10/31 00:11:15;;;;;;;;;17.20;16.20;;;;;16.23;31.84;98776.75;5051716;28;8860;-70
2023/10/31 00:13:44;;;;;;;;;19.20;18.60;;;;;16.17;31.80;98779.75;5067583;28;8935;-70
2023/10/31 00:16:13;;;;;;;;;19.00;15.80;;;;;16.13;32.24;98772.03;5040234;28;8846;-69
2023/10/31 00:18:42;;;;;;;;;16.60;16.60;;;;;16.11;32.34;98779.22;5069748;28;8858;-72
2023/10/31 00:21:10;;;;;;;;;18.00;16.80;;;;;16.07;32.35;98773.25;5069782;28;8861;-71
2023/10/31 00:23:45;;;;;;;;;16.40;16.00;;;;;15.97;32.71;98766.75;5069697;28;8873;-71
2023/10/31 00:26:14;;;;;;;;;18.20;17.60;;;;;15.99;32.70;98776.31;5068513;28;8873;-70
2023/10/31 00:28:50;;;;;;;;;17.80;17.80;;;;;16.00;32.52;98774.50;5068428;28;8842;-69
2023/10/31 00:31:19;;;;;;;;;18.00;17.00;;;;;15.96;32.70;98757.06;5068429;28;8850;-68
2023/10/31 00:33:47;;;;;;;;;18.00;17.40;;;;;15.92;32.69;98761.69;5051720;28;8866;-69
2023/10/31 00:36:16;;;;;;;;;16.00;15.40;;;;;15.93;32.68;98762.56;5068285;28;9006;-72
2023/10/31 00:38:47;;;;;;;;;17.60;16.00;;;;;15.84;32.65;98756.81;5069096;28;8983;-76
2023/10/31 00:41:16;;;;;;;;;16.00;15.80;;;;;15.84;32.60;98753.31;5068015;28;8850;-74
2023/10/31 00:43:44;;;;;;;;;17.00;16.20;;;;;15.78;32.50;98749.22;5065546;28;8952;-75
2023/10/31 00:46:14;;;;;;;;;16.00;15.80;;;;;15.80;32.64;98749.13;5030214;28;8853;-75
2023/10/31 00:48:42;;;;;;;;;16.20;16.20;;;;;15.81;32.59;98750.81;5090758;28;9019;-75
2023/10/31 00:51:12;;;;;;;;;16.60;16.60;;;;;15.87;32.44;98755.81;5057577;28;8841;-74
2023/10/31 00:53:41;;;;;;;;;14.00;13.60;;;;;15.87;32.42;98749.63;5058587;28;8886;-73
2023/10/31 00:56:11;;;;;;;;;15.80;14.00;;;;;15.90;32.58;98749.47;5054999;28;8854;-72
2023/10/31 00:58:40;;;;;;;;;17.20;15.80;;;;;15.95;32.78;98735.03;5072635;28;8856;-71
2023/10/31 01:01:09;;;;;;;;;17.60;16.60;;;;;15.86;32.72;98740.84;5053478;28;8857;-72
2023/10/31 01:03:37;;;;;;;;;17.00;15.20;;;;;15.89;32.93;98740.69;5069457;28;8907;-73
2023/10/31 01:06:07;;;;;;;;;16.20;14.80;;;;;15.81;32.95;98745.53;5059468;28;8830;-75
2023/10/31 01:08:36;;;;;;;;;17.00;16.20;;;;;15.77;33.19;98728.09;5071833;28;8867;-71
2023/10/31 01:11:05;;;;;;;;;11.60;11.40;;;;;15.90;32.86;98730.94;5072243;28;8840;-73
2023/10/31 01:13:35;;;;;;;;;18.00;14.60;;;;;15.81;33.14;98725.22;5060500;28;8945;-72
2023/10/31 01:16:05;;;;;;;;;14.60;14.20;;;;;15.72;33.21;98716.88;5031570;28;9673;-74
2023/10/31 01:18:34;;;;;;;;;13.60;12.40;;;;;15.71;33.19;98712.53;5071495;28;8840;-74
2023/10/31 01:21:03;;;;;;;;;7.60;7.40;;;;;15.70;33.17;98721.41;5057370;28;8862;-75
2023/10/31 01:23:32;;;;;;;;;13.60;12.60;;;;;15.69;33.20;98709.13;5055197;28;9697;-72
2023/10/31 01:26:01;;;;;;;;;16.40;14.60;;;;;15.78;33.34;98704.16;5092001;28;8843;-70
2023/10/31 01:28:30;;;;;;;;;16.60;15.60;;;;;15.71;33.31;98707.25;5074383;28;8862;-72
2023/10/31 01:31:00;;;;;;;;;14.00;14.00;;;;;15.71;33.32;98710.75;5061122;28;9618;-73
2023/10/31 01:33:29;;;;;;;;;14.40;13.60;;;;;15.69;33.38;98722.38;5073864;28;9001;-72
2023/10/31 01:35:58;;;;;;;;;13.60;13.00;;;;;15.72;33.14;98716.88;5056509;28;8852;-75
2023/10/31 01:38:27;;;;;;;;;15.40;14.80;;;;;15.71;33.16;98710.75;5072956;28;8908;-74
2023/10/31 01:40:56;;;;;;;;;15.20;14.20;;;;;15.76;33.10;98714.00;5074322;28;8843;-72
2023/10/31 01:43:32;;;;;;;;;12.20;12.00;;;;;15.87;32.97;98708.09;5072625;28;8950;-70
2023/10/31 01:46:03;;;;;;;;;12.00;12.00;;;;;15.77;33.11;98702.44;5078086;28;8832;-74
2023/10/31 01:48:34;;;;;;;;;16.60;13.80;;;;;15.78;32.71;98705.97;5072963;28;9030;-74
2023/10/31 01:51:04;;;;;;;;;13.60;11.20;;;;;15.83;32.74;98694.19;5068667;28;8872;-70
2023/10/31 01:53:34;;;;;;;;;11.80;11.00;;;;;15.82;32.53;98691.59;5074927;28;8976;-74
2023/10/31 01:56:05;;;;;;;;;11.60;11.20;;;;;15.91;32.67;98690.25;5071207;28;8922;-73
2023/10/31 01:58:36;;;;;;;;;12.20;12.00;;;;;15.93;32.70;98683.06;5073434;28;8841;-76
2023/10/31 02:01:07;;;;;;;;;16.00;12.20;;;;;15.95;32.25;98684.66;5052130;28;8898;-74
2023/10/31 02:03:36;;;;;;;;;10.00;10.00;;;;;15.90;32.58;98681.41;5070668;28;8977;-73
2023/10/31 02:06:06;;;;;;;;;11.00;10.20;;;;;15.95;32.44;98673.22;5068538;28;8842;-73
2023/10/31 02:08:35;;;;;;;;;12.40;11.00;;;;;15.92;32.21;98663.63;5036448;28;8970;-71
2023/10/31 02:11:05;;;;;;;;;13.00;12.20;;;;;15.87;32.14;98656.88;5072997;28;8897;-72
2023/10/31 02:13:34;;;;;;;;;9.20;8.40;;;;;15.87;31.93;98667.47;5031863;28;8867;-72
2023/10/31 02:16:04;;;;;;;;;11.60;11.60;;;;;15.84;31.94;98648.16;5011008;28;8867;-73
2023/10/31 02:18:36;;;;;;;;;10.80;10.80;;;;;15.92;31.91;98641.56;5030274;28;8915;-72
2023/10/31 02:21:05;;;;;;;;;12.60;10.80;;;;;15.81;32.44;98634.22;5037431;28;8927;-72
2023/10/31 02:23:36;;;;;;;;;11.00;10.20;;;;;15.74;32.39;98624.94;5038506;28;8866;-72
2023/10/31 02:26:05;;;;;;;;;14.60;12.00;;;;;15.78;32.61;98627.31;5001363;28;8857;-75
2023/10/31 02:28:33;;;;;;;;;11.00;11.00;;;;;15.73;32.87;98618.78;5054262;28;8857;-74
2023/10/31 02:31:02;;;;;;;;;11.00;11.00;;;;;15.62;33.02;98614.09;4988346;28;8854;-74
2023/10/31 02:33:31;;;;;;;;;12.60;11.40;;;;;15.69;32.89;98603.16;5026866;28;8950;-73
2023/10/31 02:36:00;;;;;;;;;9.60;9.00;;;;;15.70;32.99;98600.44;5028592;28;8987;-72
2023/10/31 02:38:29;;;;;;;;;11.60;10.60;;;;;15.68;32.89;98614.69;5028202;28;8859;-74
2023/10/31 02:40:59;;;;;;;;;12.60;11.80;;;;;15.61;32.91;98609.75;5047972;28;8944;-74
2023/10/31 02:43:28;;;;;;;;;9.00;9.00;;;;;15.61;32.72;98601.78;5064556;28;8866;-73
2023/10/31 02:45:57;;;;;;;;;10.60;10.00;;;;;15.65;32.83;98605.13;5087065;28;8837;-74
2023/10/31 02:48:27;;;;;;;;;12.40;11.80;;;;;15.61;33.05;98601.78;5103056;28;9607;-74
2023/10/31 02:50:56;;;;;;;;;9.60;9.60;;;;;15.65;32.85;98586.56;5072664;28;8875;-72
2023/10/31 02:53:25;;;;;;;;;10.00;10.00;;;;;15.60;32.90;98588.63;5051679;28;8921;-73
2023/10/31 02:55:54;;;;;;;;;11.20;11.20;;;;;15.49;32.82;98583.94;5107156;28;8843;-70
2023/10/31 02:58:24;;;;;;;;;11.80;11.00;;;;;15.57;32.80;98575.53;5105697;28;8875;-74
2023/10/31 03:00:53;;;;;;;;;10.00;9.00;;;;;15.48;33.08;98571.63;5105624;28;8887;-72
2023/10/31 03:03:22;;;;;;;;;13.20;10.40;;;;;15.54;32.81;98565.13;5102740;28;8862;-72
2023/10/31 03:05:51;;;;;;;;;10.60;9.20;;;;;15.49;32.69;98565.38;5105419;28;8840;-72
2023/10/31 03:08:20;;;;;;;;;10.20;9.80;;;;;15.49;32.38;98575.97;5105878;28;8845;-73
2023/10/31 03:10:51;;;;;;;;;10.80;9.80;;;;;15.48;32.22;98584.84;5092129;28;9003;-71
2023/10/31 03:13:20;;;;;;;;;8.00;8.00;;;;;15.50;32.05;98571.53;5053406;28;8881;-70
2023/10/31 03:15:51;;;;;;;;;10.40;8.80;;;;;15.53;32.01;98574.88;5051833;28;8937;-74
2023/10/31 03:18:21;;;;;;;;;8.60;8.40;;;;;15.55;31.86;98572.13;5055680;28;8868;-74
2023/10/31 03:20:51;;;;;;;;;9.60;9.60;;;;;15.60;31.31;98584.22;5086561;28;8881;-75
2023/10/31 03:23:19;;;;;;;;;9.80;9.00;;;;;15.61;31.35;98590.34;5036465;28;9540;-74
2023/10/31 03:25:48;;;;;;;;;9.40;7.60;;;;;15.60;31.13;98592.16;5070995;28;8939;-74
2023/10/31 03:28:20;;;;;;;;;2.40;2.40;;;;;15.69;30.99;98609.31;5070213;28;8938;-72
2023/10/31 03:30:50;;;;;;;;;8.80;8.80;;;;;15.76;30.78;98593.91;5086626;28;8835;-73
2023/10/31 03:33:19;;;;;;;;;9.20;7.80;;;;;15.75;30.89;98602.78;5069864;28;8881;-72
2023/10/31 03:35:48;;;;;;;;;8.20;8.00;;;;;15.83;30.72;98608.50;5067905;28;8856;-74
2023/10/31 03:38:17;;;;;;;;;8.40;8.40;;;;;15.90;30.82;98598.41;5068540;28;8921;-73
2023/10/31 03:40:46;;;;;;;;;8.60;7.60;;;;;15.87;30.76;98598.56;5068101;28;8886;-71
2023/10/31 03:43:15;;;;;;;;;8.40;8.40;;;;;15.95;30.55;98604.31;5068594;28;8936;-74
2023/10/31 03:45:44;;;;;;;;;7.00;7.00;;;;;16.00;30.24;98604.88;5088716;28;8850;-74
2023/10/31 03:48:14;;;;;;;;;11.00;8.20;;;;;16.03;30.39;98610.00;5071452;28;8853;-74
2023/10/31 03:50:43;;;;;;;;;9.60;9.60;;;;;16.09;29.84;98606.13;5070004;28;8925;-73
2023/10/31 03:53:12;;;;;;;;;7.80;7.20;;;;;16.26;29.66;98605.16;5062536;28;8923;-73
2023/10/31 03:55:41;;;;;;;;;8.80;8.80;;;;;16.15;30.10;98616.38;5071381;28;8834;-74
2023/10/31 03:58:10;;;;;;;;;8.40;8.20;;;;;16.30;29.81;98612.81;5071152;28;8849;-72
2023/10/31 04:00:40;;;;;;;;;10.00;10.00;;;;;16.34;29.13;98619.66;5054153;28;9724;-74
2023/10/31 04:03:09;;;;;;;;;7.00;7.00;;;;;16.40;29.12;98619.28;5087807;28;8880;-73
2023/10/31 04:05:40;;;;;;;;;9.00;7.60;;;;;16.49;28.97;98625.00;5066235;28;8848;-73
2023/10/31 04:08:09;;;;;;;;;7.00;6.60;;;;;16.38;29.38;98621.19;5050771;28;8911;-74
2023/10/31 04:10:38;;;;;;;;;8.20;8.20;;;;;16.48;29.00;98623.31;5035098;28;9648;-74
2023/10/31 04:13:08;;;;;;;;;8.20;8.20;;;;;16.47;28.79;98618.94;5048023;28;9011;-73
2023/10/31 04:15:37;;;;;;;;;10.00;9.20;;;;;16.39;29.38;98619.38;5050281;28;8841;-74
2023/10/31 04:18:06;;;;;;;;;10.40;9.40;;;;;16.44;29.58;98627.94;5050094;28;8852;-76
2023/10/31 04:20:35;;;;;;;;;10.00;10.00;;;;;16.50;29.49;98640.00;5004234;28;8841;-75
2023/10/31 04:23:05;;;;;;;;;8.20;7.60;;;;;16.51;29.50;98645.22;5049848;28;8950;-72
2023/10/31 04:25:35;;;;;;;;;7.20;7.20;;;;;16.57;29.75;98647.50;5049747;28;8867;-74
2023/10/31 04:28:03;;;;;;;;;8.80;8.20;;;;;16.58;29.92;98662.44;5049718;28;8861;-74
2023/10/31 04:30:32;;;;;;;;;8.60;8.60;;;;;16.68;30.24;98653.94;4999094;28;8954;-74
2023/10/31 04:33:01;;;;;;;;;8.80;7.40;;;;;16.64;30.31;98653.25;5065836;28;8874;-77
2023/10/31 04:35:30;;;;;;;;;11.60;10.80;;;;;16.66;30.64;98656.69;5067109;28;9070;-74
2023/10/31 04:37:59;;;;;;;;;9.60;8.00;;;;;16.65;30.77;98657.63;5050589;28;8850;-72
2023/10/31 04:40:29;;;;;;;;;9.20;8.20;;;;;16.54;30.94;98654.78;5070062;28;8862;-74
2023/10/31 04:42:58;;;;;;;;;8.00;7.20;;;;;16.65;30.86;98670.91;5074322;28;8908;-73
2023/10/31 04:45:27;;;;;;;;;7.40;7.40;;;;;16.68;31.11;98667.22;5033694;28;9944;-73
2023/10/31 04:47:56;;;;;;;;;7.40;7.00;;;;;16.65;31.04;98665.59;5069165;28;8866;-72
2023/10/31 04:50:25;;;;;;;;;9.20;9.20;;;;;16.50;31.56;98674.47;5068177;28;8853;-72
2023/10/31 04:52:54;;;;;;;;;11.40;11.40;;;;;16.57;31.60;98671.38;5048029;28;8872;-73
2023/10/31 04:55:23;;;;;;;;;8.00;8.00;;;;;16.56;32.21;98671.44;5054296;28;8941;-73
2023/10/31 04:57:53;;;;;;;;;7.80;7.80;;;;;16.57;32.21;98667.88;5034578;28;8855;-79
2023/10/31 05:00:22;;;;;;;;;7.40;7.40;;;;;16.51;32.09;98661.13;5067941;28;8877;-73
2023/10/31 05:02:50;;;;;;;;;8.20;7.60;;;;;16.50;32.19;98637.34;5064167;28;8873;-73
2023/10/31 05:05:20;;;;;;;;;7.00;7.00;;;;;16.49;32.77;98643.59;5064670;28;8841;-77
2023/10/31 05:07:49;;;;;;;;;12.80;12.80;;;;;16.42;32.64;98656.34;5030414;28;8849;-71
2023/10/31 05:10:18;;;;;;;;;11.20;8.80;;;;;16.50;32.66;98640.84;5048021;28;8869;-73
2023/10/31 05:12:47;;;;;;;;;8.40;8.40;;;;;16.52;32.56;98656.66;5064363;28;8896;-73
2023/10/31 05:15:17;;;;;;;;;8.00;8.00;;;;;16.61;32.42;98656.97;5048980;28;8873;-71
2023/10/31 05:17:46;;;;;;;;;9.80;8.60;;;;;16.78;31.99;98652.44;5050275;28;8861;-74
2023/10/31 05:20:15;;;;;;;;;7.00;7.00;;;;;16.71;32.18;98644.00;5048940;28;8841;-71
2023/10/31 05:22:44;;;;;;;;;15.00;15.00;;;;;16.74;32.68;98675.66;5060446;28;8980;-72
2023/10/31 05:25:13;;;;;;;;;28.00;26.80;;;;;16.82;32.42;98669.88;5067477;28;8866;-73
2023/10/31 05:27:41;;;;;;;;;10.20;10.20;;;;;16.85;32.44;98655.56;5068469;28;8838;-73
2023/10/31 05:30:12;;;;;;;;;7.80;7.80;;;;;16.92;32.37;98643.63;5067062;28;8885;-73
2023/10/31 05:32:42;;;;;;;;;9.60;8.60;;;;;16.82;32.25;98632.72;5066338;28;8873;-74
2023/10/31 05:35:11;;;;;;;;;9.80;8.60;;;;;16.71;32.62;98641.34;5066873;28;8862;-72
2023/10/31 05:37:40;;;;;;;;;4.20;3.00;;;;;16.77;32.60;98642.75;5067022;28;8858;-74
2023/10/31 05:40:10;;;;;;;;;8.00;6.80;;;;;16.75;32.55;98637.53;5067778;28;8881;-75
2023/10/31 05:42:39;;;;;;;;;7.40;6.20;;;;;16.82;32.63;98621.28;5049274;28;8959;-73
2023/10/31 05:45:09;;;;;;;;;4.60;4.60;;;;;16.56;32.68;98632.50;5067036;28;8854;-73
2023/10/31 05:47:38;;;;;;;;;10.40;9.00;;;;;16.56;33.15;98627.19;5060404;28;9618;-75
2023/10/31 05:50:09;;;;;;;;;9.20;7.20;;;;;16.58;32.84;98651.84;5027520;28;8878;-74
2023/10/31 05:52:38;;;;;;;;;8.80;8.20;;;;;16.62;33.01;98676.38;5016967;28;8866;-75
2023/10/31 05:55:09;;;;;;;;;8.00;7.00;;;;;16.54;32.96;98678.66;5067698;28;8858;-71
2023/10/31 05:57:37;;;;;;;;;7.40;5.80;;;;;16.67;33.04;98702.66;5018416;28;8860;-76
2023/10/31 06:00:08;;;;;;;;;10.40;6.80;;;;;16.80;32.68;98688.56;5047995;28;8872;-73
2023/10/31 06:02:39;;;;;;;;;8.40;8.40;;;;;16.85;32.79;98661.72;5058229;28;8842;-75
2023/10/31 06:05:10;;;;;;;;;6.00;6.00;;;;;17.03;33.08;98649.13;5067602;28;8842;-72
2023/10/31 06:07:39;;;;;;;;;7.40;7.00;;;;;17.07;32.19;98652.44;5048865;28;8838;-79
2023/10/31 06:10:09;;;;;;;;;10.00;9.00;;;;;17.02;31.78;98662.50;5083175;28;8869;-74
2023/10/31 06:12:39;;;;;;;;;5.80;5.80;;;;;17.10;31.41;98679.66;5049582;28;8866;-71
2023/10/31 06:15:09;;;;;;;;;9.80;7.80;;;;;16.94;32.30;98666.47;5066115;28;8838;-73
2023/10/31 06:17:37;;;;;;;;;9.00;6.00;;;;;16.99;31.92;98672.34;5064956;28;8939;-73
2023/10/31 06:20:10;;;;;;;;;5.40;5.40;;;;;17.05;31.02;98667.63;5067541;28;8850;-76
2023/10/31 06:22:40;;;;;;;;;7.80;6.60;;;;;16.93;31.15;98682.50;5048424;28;8831;-73
2023/10/31 06:25:09;;;;;;;;;8.80;8.60;;;;;17.01;31.14;98672.28;5066801;28;9537;-72
2023/10/31 06:27:37;;;;;;;;;5.80;5.60;;;;;17.03;30.90;98682.81;5018003;28;8866;-75
2023/10/31 06:30:08;;;;;;;;;5.80;5.80;;;;;17.04;30.45;98669.44;5069979;28;8839;-74
2023/10/31 06:32:52;;;;;;;;;7.40;6.40;;;;;16.95;30.74;98651.41;5060491;28;8908;-73
2023/10/31 06:35:24;;;;;;;;;6.80;6.80;;;;;16.95;30.49;98643.44;5067412;28;9595;-75
2023/10/31 06:37:55;;;;;;;;;7.00;7.00;;;;;16.94;30.02;98631.97;5081375;28;8868;-74
2023/10/31 06:40:25;;;;;;;;;5.80;5.80;;;;;16.92;29.87;98631.19;5064999;28;8838;-74
2023/10/31 06:42:54;;;;;;;;;5.20;5.20;;;;;16.93;29.20;98601.06;5068991;28;8855;-76
2023/10/31 06:45:23;;;;;;;;;6.40;5.40;;;;;16.90;29.21;98611.03;5070668;28;8858;-75
2023/10/31 06:47:52;;;;;;;;;7.40;5.80;;;;;16.98;29.13;98622.88;5069149;28;8850;-74
2023/10/31 06:50:22;;;;;;;;;4.00;4.00;;;;;17.08;28.83;98623.16;5069174;28;8838;-73
2023/10/31 06:52:51;;;;;;;;;2.80;2.60;;;;;17.03;29.17;98640.31;5071574;28;8862;-74
2023/10/31 06:55:20;;;;;;;;;7.20;6.00;;;;;17.10;29.36;98637.19;5071597;28;9002;-74
2023/10/31 06:57:49;;;;;;;;;3.80;3.80;;;;;17.11;29.87;98630.06;5054056;28;8872;-75
2023/10/31 07:00:18;;;;;;;;;7.60;7.00;;;;;17.24;30.06;98625.69;5020965;28;8850;-73
2023/10/31 07:02:48;;;;;;;;;5.40;5.40;;;;;17.34;30.16;98644.56;5070370;28;8863;-73
2023/10/31 07:05:18;;;;;;;;;7.80;7.20;;;;;17.45;29.84;98635.94;5070274;28;8839;-75
2023/10/31 07:07:48;;;;;;;;;9.00;7.80;;;;;17.35;30.13;98615.25;5070373;28;8886;-73
2023/10/31 07:10:17;;;;;;;;;7.00;7.00;;;;;17.10;30.76;98623.91;5068803;28;8866;-74
2023/10/31 07:12:46;;;;;;;;;6.40;6.40;;;;;17.14;31.09;98614.78;5069826;28;8865;-74
2023/10/31 07:15:15;;;;;;;;;9.40;6.80;;;;;17.15;31.40;98619.13;5052277;28;8873;-76
2023/10/31 07:17:44;;;;;;;;;8.60;8.20;;;;;17.22;31.46;98601.03;5069846;28;8971;-73
2023/10/31 07:20:13;;;;;;;;;8.20;7.60;;;;;17.17;31.45;98609.31;5070316;28;8873;-74
2023/10/31 07:22:42;;;;;;;;;6.40;6.20;;;;;17.23;31.66;98616.03;5019821;28;8943;-75
2023/10/31 07:25:12;;;;;;;;;7.80;7.00;;;;;17.23;31.92;98610.72;5052001;28;8870;-73
2023/10/31 07:27:41;;;;;;;;;6.60;6.60;;;;;17.30;32.05;98609.38;5069158;28;8947;-75
2023/10/31 07:30:11;;;;;;;;;9.20;9.20;;;;;17.20;32.63;98589.66;5025167;28;8848;-78
2023/10/31 07:32:40;;;;;;;;;9.00;8.00;;;;;17.17;32.97;98565.94;5069569;28;8888;-76
2023/10/31 07:35:09;;;;;;;;;7.40;7.40;;;;;17.11;33.31;98558.38;5070078;28;8876;-76
2023/10/31 07:37:38;;;;;;;;;6.40;5.60;;;;;17.07;33.39;98548.91;5069305;28;8870;-75
2023/10/31 07:40:08;;;;;;;;;7.20;6.60;;;;;17.03;33.56;98552.69;5070202;28;8846;-75
2023/10/31 07:42:38;;;;;;;;;7.60;7.60;;;;;16.95;33.96;98543.41;5069069;28;8884;-76
2023/10/31 07:45:08;;;;;;;;;6.20;6.20;;;;;16.91;34.12;98526.00;5070704;28;8859;-74
2023/10/31 07:47:37;;;;;;;;;8.40;8.40;;;;;16.88;34.30;98485.50;5071032;28;8859;-75
2023/10/31 07:50:06;;;;;;;;;8.40;7.80;;;;;16.83;34.65;98498.22;5068708;28;9626;-76
2023/10/31 07:52:35;;;;;;;;;9.00;9.00;;;;;16.88;34.37;98489.00;5070314;28;8858;-76
2023/10/31 07:55:05;;;;;;;;;8.00;7.00;;;;;16.83;34.28;98492.91;5069974;28;8862;-75
2023/10/31 07:57:34;;;;;;;;;9.60;9.40;;;;;16.91;34.20;98491.47;5001191;28;8971;-73
2023/10/31 08:00:11;;;;;;;;;8.40;8.40;;;;;16.95;34.16;98494.78;5070177;28;8854;-78
2023/10/31 08:02:40;;;;;;;;;9.00;8.40;;;;;17.04;34.10;98504.81;5069132;28;8881;-75
2023/10/31 08:05:11;;;;;;;;;6.20;6.20;;;;;17.01;33.97;98497.03;5070504;28;9004;-74
2023/10/31 08:07:40;;;;;;;;;5.60;5.60;;;;;17.03;33.97;98495.13;5069390;28;8889;-73
2023/10/31 08:10:10;;;;;;;;;6.40;6.40;;;;;17.05;33.96;98498.53;5050986;28;8832;-74
2023/10/31 08:12:38;;;;;;;;;7.80;7.60;;;;;16.97;34.17;98498.19;5018706;28;8862;-75
2023/10/31 08:15:09;;;;;;;;;10.20;9.60;;;;;17.02;34.01;98501.38;5068970;28;8880;-75
2023/10/31 08:17:38;;;;;;;;;7.20;7.20;;;;;17.14;34.08;98505.06;5068618;28;9707;-73
2023/10/31 08:20:08;;;;;;;;;8.00;8.00;;;;;17.18;33.64;98494.13;5067341;28;8882;-75
2023/10/31 08:22:37;;;;;;;;;7.80;7.20;;;;;17.14;33.81;98507.72;5067899;28;8990;-74
2023/10/31 08:25:06;;;;;;;;;8.80;7.80;;;;;17.23;33.42;98504.47;5050845;28;8864;-73
2023/10/31 08:27:36;;;;;;;;;7.60;7.60;;;;;17.35;32.85;98497.53;5067573;28;8852;-76
2023/10/31 08:30:05;;;;;;;;;9.20;7.20;;;;;17.31;32.59;98501.34;5067430;28;8836;-74
2023/10/31 08:32:36;;;;;;;;;6.60;6.60;;;;;17.45;32.82;98497.78;5050555;28;8833;-77
2023/10/31 08:35:05;;;;;;;;;7.60;7.60;;;;;17.43;32.88;98503.19;5067488;28;9024;-72
2023/10/31 08:37:34;;;;;;;;;9.80;9.20;;;;;17.49;32.47;98489.50;5067206;28;8844;-74
2023/10/31 08:40:04;;;;;;;;;11.00;10.20;;;;;17.53;32.50;98517.59;5017254;28;8994;-75
2023/10/31 08:42:34;;;;;;;;;14.00;12.00;;;;;17.66;32.11;98522.91;5069664;28;8904;-74
2023/10/31 08:45:03;;;;;;;;;9.00;8.60;;;;;17.82;31.89;98541.38;5069550;28;8893;-73
2023/10/31 08:47:33;;;;;;;;;9.60;8.60;;;;;17.98;31.69;98549.16;5070054;28;8842;-74
2023/10/31 08:50:03;;;;;;;;;11.00;10.00;;;;;18.06;31.39;98546.00;5069648;28;8981;-74
2023/10/31 08:52:32;;;;;;;;;7.60;7.00;;;;;18.15;30.96;98522.28;5068307;28;8866;-74
2023/10/31 08:55:01;;;;;;;;;8.40;6.80;;;;;18.28;30.68;98532.09;5067909;28;8850;-76
2023/10/31 08:57:30;;;;;;;;;6.60;6.60;;;;;18.31;30.36;98524.75;5069458;28;8899;-74
2023/10/31 08:59:59;;;;;;;;;3.00;3.00;;;;;18.50;30.48;98518.16;5069561;28;8873;-76
2023/10/31 09:02:28;;;;;;;;;8.00;8.00;;;;;18.50;30.03;98519.00;5067899;28;8878;-75
2023/10/31 09:04:57;;;;;;;;;9.00;7.80;;;;;18.71;29.84;98537.91;5069211;28;8875;-75
2023/10/31 09:07:28;;;;;;;;;9.00;8.20;;;;;18.93;29.57;98533.75;5032983;28;8905;-75
2023/10/31 09:09:57;;;;;;;;;5.00;4.00;;;;;19.04;29.28;98531.16;5069466;28;8960;-74
2023/10/31 09:12:26;;;;;;;;;7.40;5.40;;;;;19.11;29.04;98535.09;5069105;28;8873;-76
2023/10/31 09:14:54;;;;;;;;;7.40;7.00;;;;;19.22;28.66;98530.81;5067627;28;8916;-73
2023/10/31 09:17:26;;;;;;;;;4.20;4.20;;;;;19.27;28.37;98523.31;5067490;28;8893;-74
2023/10/31 09:19:55;;;;;;;;;8.00;6.00;;;;;19.41;28.31;98516.97;5067752;28;8863;-74
2023/10/31 09:22:27;;;;;;;;;6.00;6.00;;;;;19.43;27.85;98512.38;5068745;28;8851;-76
2023/10/31 09:24:57;;;;;;;;;7.80;5.60;;;;;19.61;27.79;98512.84;5068770;28;9014;-75
2023/10/31 09:27:26;;;;;;;;;5.80;5.80;;;;;19.66;27.51;98519.53;5034139;28;8955;-75
2023/10/31 09:29:55;;;;;;;;;7.60;7.00;;;;;19.70;27.99;98531.66;5017469;28;8893;-75
2023/10/31 09:32:24;;;;;;;;;4.80;4.80;;;;;19.87;27.62;98525.03;5049808;28;8877;-74
2023/10/31 09:34:52;;;;;;;;;5.00;4.60;;;;;19.75;27.52;98510.00;5033765;28;8943;-74
2023/10/31 09:37:21;;;;;;;;;6.20;6.00;;;;;19.88;27.39;98508.09;5033634;28;8873;-77
2023/10/31 09:39:50;;;;;;;;;6.20;5.00;;;;;19.88;27.81;98512.59;5068394;28;8866;-75
2023/10/31 09:42:21;;;;;;;;;6.60;6.00;;;;;20.02;27.76;98511.53;5067121;28;8970;-76
2023/10/31 09:44:49;;;;;;;;;4.40;4.40;;;;;19.98;27.81;98518.91;5068545;28;8954;-75
2023/10/31 09:47:21;;;;;;;;;7.20;7.20;;;;;20.03;27.53;98502.56;5068724;28;9093;-75
2023/10/31 09:49:50;;;;;;;;;9.80;8.60;;;;;20.03;27.49;98491.91;5068368;28;9646;-76
2023/10/31 09:52:20;;;;;;;;;8.60;8.60;;;;;20.16;27.43;98500.66;5065614;28;9668;-75
2023/10/31 09:54:50;;;;;;;;;10.00;8.20;;;;;20.21;27.29;98503.78;5065612;28;8963;-75
2023/10/31 09:57:21;;;;;;;;;6.00;5.00;;;;;20.26;26.97;98495.47;5066029;28;9640;-76
2023/10/31 09:59:49;;;;;;;;;6.60;6.60;;;;;20.29;27.18;98484.53;5066112;28;8863;-75
2023/10/31 10:02:21;;;;;;;;;6.40;6.20;;;;;20.29;27.22;98485.41;5067335;28;8860;-75
2023/10/31 10:04:50;;;;;;;;;7.00;6.80;;;;;20.28;27.10;98475.69;5066193;28;8864;-74
2023/10/31 10:07:20;;;;;;;;;6.20;6.20;;;;;20.23;27.02;98475.19;5049675;28;8848;-76
2023/10/31 10:09:49;;;;;;;;;7.00;6.80;;;;;20.08;27.44;98473.69;5049283;28;8848;-74
2023/10/31 10:12:18;;;;;;;;;5.40;5.40;;;;;20.02;27.68;98466.16;5065357;28;9002;-75
2023/10/31 10:14:48;;;;;;;;;6.00;6.00;;;;;20.09;27.54;98483.41;5065947;28;8864;-76
2023/10/31 10:17:19;;;;;;;;;9.40;8.00;;;;;20.15;27.34;98466.06;5067090;28;8848;-75
2023/10/31 10:19:47;;;;;;;;;7.40;7.40;;;;;20.24;27.26;98476.91;5072622;28;8856;-75
2023/10/31 10:22:21;;;;;;;;;6.20;6.00;;;;;20.35;26.88;98454.72;5072479;28;8852;-74
2023/10/31 10:24:51;;;;;;;;;5.60;5.00;;;;;20.37;27.23;98444.78;5072965;28;8856;-76
2023/10/31 10:27:21;;;;;;;;;7.40;7.40;;;;;20.41;27.50;98440.03;5072925;28;8844;-75
2023/10/31 10:29:54;;;;;;;;;6.00;6.00;;;;;20.51;27.29;98430.31;5056584;28;8964;-75
2023/10/31 10:32:23;;;;;;;;;7.20;7.20;;;;;20.35;27.72;98422.69;5074838;28;8881;-75
2023/10/31 10:34:52;;;;;;;;;7.00;7.00;;;;;20.32;27.51;98409.59;5075115;28;8939;-73
2023/10/31 10:37:23;;;;;;;;;10.40;9.20;;;;;20.27;27.65;98406.41;5075430;28;8881;-78
2023/10/31 10:39:55;;;;;;;;;6.60;6.60;;;;;20.29;27.79;98393.81;5056756;28;9001;-76
2023/10/31 10:42:33;;;;;;;;;9.00;8.00;;;;;20.24;28.17;98388.84;5074913;28;8927;-75
2023/10/31 10:45:05;;;;;;;;;7.20;7.00;;;;;20.10;28.20;98381.91;5074710;28;9007;-75
2023/10/31 10:47:35;;;;;;;;;5.40;5.40;;;;;20.03;28.23;98374.53;5075190;28;8862;-73
2023/10/31 10:50:07;;;;;;;;;7.40;7.40;;;;;19.98;28.58;98379.34;5074880;28;8864;-74
2023/10/31 10:52:40;;;;;;;;;8.60;7.00;;;;;19.94;28.43;98385.91;5039576;28;8851;-76
2023/10/31 10:55:16;;;;;;;;;9.80;8.40;;;;;20.05;28.30;98369.91;5056658;28;8858;-77
2023/10/31 10:57:54;;;;;;;;;10.60;8.40;;;;;20.08;28.22;98377.66;5074640;28;8871;-78
2023/10/31 11:00:26;;;;;;;;;8.00;6.20;;;;;20.03;28.31;98372.69;5039290;28;9663;-75
2023/10/31 11:02:57;;;;;;;;;5.40;5.40;;;;;19.97;28.30;98367.84;5073794;28;8863;-76
2023/10/31 11:05:26;;;;;;;;;6.00;6.00;;;;;19.97;28.25;98372.31;5073327;28;8866;-76
2023/10/31 11:07:58;;;;;;;;;8.60;6.20;;;;;20.00;28.47;98364.94;5074896;28;8888;-74
2023/10/31 11:10:30;;;;;;;;;6.00;5.60;;;;;20.08;28.32;98366.97;5075089;28;8846;-74
2023/10/31 11:12:59;;;;;;;;;6.40;6.40;;;;;20.06;28.67;98356.44;5056712;28;9612;-76
2023/10/31 11:15:30;;;;;;;;;7.60;6.00;;;;;20.11;28.62;98361.41;5074785;28;8842;-73
2023/10/31 11:17:59;;;;;;;;;9.40;9.20;;;;;20.09;28.65;98350.03;5074547;28;9074;-74
2023/10/31 11:20:29;;;;;;;;;7.80;7.00;;;;;20.20;28.44;98352.69;5074090;28;8862;-77
2023/10/31 11:22:59;;;;;;;;;8.00;7.40;;;;;20.08;29.01;98349.19;5074089;28;8850;-74
2023/10/31 11:25:27;;;;;;;;;9.00;9.00;;;;;20.21;28.94;98342.84;5073943;28;8855;-76
2023/10/31 11:28:14;;;;;;;;;8.00;8.00;;;;;20.35;28.60;98336.41;5074115;28;8854;-77
2023/10/31 11:30:48;;;;;;;;;7.40;7.00;;;;;20.31;28.96;98348.31;5069890;28;8878;-76
2023/10/31 11:33:21;;;;;;;;;5.80;5.80;;;;;20.41;28.44;98354.63;5069770;28;8850;-74
2023/10/31 11:36:01;;;;;;;;;8.80;6.40;;;;;20.49;28.79;98346.84;5036187;28;8874;-77
2023/10/31 11:38:34;;;;;;;;;8.60;6.60;;;;;20.49;28.90;98344.16;5069371;28;8862;-76
2023/10/31 11:41:04;;;;;;;;;5.00;4.60;;;;;20.50;28.61;98343.22;5069394;28;8858;-74
2023/10/31 11:43:51;;;;;;;;;5.60;5.60;;;;;20.71;28.54;98339.72;5069910;28;8838;-76
2023/10/31 11:46:24;;;;;;;;;9.00;7.60;;;;;20.78;28.33;98335.59;5071629;28;8884;-76
2023/10/31 11:48:56;;;;;;;;;7.00;7.00;;;;;20.88;27.78;98320.50;5073258;28;9627;-76